createdAt,value
2019-02-07T00:00:24.256Z,-3.50
2019-02-07T00:02:53.852Z,-3.40
2019-02-07T00:05:23.422Z,-3.20
2019-02-07T00:07:52.560Z,-3.40
2019-02-07T00:10:21.909Z,-3.60
2019-02-07T00:12:51.533Z,-3.50
2019-02-07T00:15:20.043Z,-3.50
2019-02-07T00:17:48.525Z,-3.80
2019-02-07T00:20:19.414Z,-4.10
2019-02-07T00:22:48.378Z,-4.10
2019-02-07T00:25:16.913Z,-4.00
2019-02-07T00:27:45.549Z,-3.90
2019-02-07T00:30:23.637Z,-3.80
2019-02-07T00:32:52.227Z,-3.80
2019-02-07T00:35:21.021Z,-3.70
2019-02-07T00:37:49.673Z,-3.40
2019-02-07T00:40:19.151Z,-3.30
2019-02-07T00:42:48.152Z,-3.20
2019-02-07T00:45:21.019Z,-3.20
2019-02-07T00:47:49.659Z,-3.30
2019-02-07T00:50:18.967Z,-3.30
2019-02-07T00:52:47.625Z,-3.30
2019-02-07T00:55:20.375Z,-3.10
2019-02-07T00:57:49.167Z,-3.10
2019-02-07T01:00:25.629Z,-3.10
2019-02-07T01:02:54.336Z,-3.10
2019-02-07T01:05:23.548Z,-3.20
2019-02-07T01:07:52.574Z,-3.30
2019-02-07T01:10:27.146Z,-3.40
2019-02-07T01:12:55.972Z,-3.40
2019-02-07T01:15:25.478Z,-3.40
2019-02-07T01:17:54.167Z,-3.40
2019-02-07T01:20:22.824Z,-3.30
2019-02-07T01:22:51.514Z,-3.30
2019-02-07T01:25:24.770Z,-3.30
2019-02-07T01:27:55.727Z,-3.30
2019-02-07T01:30:25.707Z,-3.30
2019-02-07T01:32:54.694Z,-3.30
2019-02-07T01:35:23.266Z,-3.30
2019-02-07T01:37:52.376Z,-3.30
2019-02-07T01:40:21.677Z,-3.20
2019-02-07T01:42:50.768Z,-3.30
2019-02-07T01:45:23.934Z,-3.30
2019-02-07T01:47:52.663Z,-3.30
2019-02-07T01:50:25.360Z,-3.20
2019-02-07T01:52:54.066Z,-3.30
2019-02-07T01:55:22.994Z,-3.30
2019-02-07T01:57:51.623Z,-3.50
2019-02-07T02:00:20.739Z,-3.50
2019-02-07T02:02:49.752Z,-3.40
2019-02-07T02:05:19.873Z,-3.30
2019-02-07T02:07:49.763Z,-3.20
2019-02-07T02:10:26.694Z,-3.10
2019-02-07T02:12:55.405Z,-3.10
2019-02-07T02:15:25.232Z,-3.10
2019-02-07T02:17:54.366Z,-3.20
2019-02-07T02:20:24.680Z,-3.30
2019-02-07T02:22:55.632Z,-3.30
2019-02-07T02:25:24.544Z,-3.20
2019-02-07T02:27:53.241Z,-3.10
2019-02-07T02:30:27.645Z,-3.10
2019-02-07T02:32:56.359Z,-3.10
2019-02-07T02:35:25.849Z,-3.20
2019-02-07T02:37:54.430Z,-3.30
2019-02-07T02:40:23.141Z,-3.30
2019-02-07T02:42:51.695Z,-3.30
2019-02-07T02:45:36.642Z,-3.10
2019-02-07T02:47:55.512Z,-3.20
2019-02-07T02:50:24.427Z,-3.30
2019-02-07T02:52:53.086Z,-3.20
2019-02-07T02:55:26.150Z,-3.20
2019-02-07T02:57:56.207Z,-3.30
2019-02-07T03:00:26.493Z,-3.50
2019-02-07T03:02:58.860Z,-3.30
2019-02-07T03:05:45.698Z,-3.50
2019-02-07T03:08:15.965Z,-3.50
2019-02-07T03:10:55.187Z,-3.70
2019-02-07T03:13:31.299Z,-3.60
2019-02-07T03:16:01.632Z,-3.40
2019-02-07T03:18:31.786Z,-3.40
2019-02-07T03:21:08.325Z,-3.60
2019-02-07T03:23:53.645Z,-3.70
2019-02-07T03:26:43.248Z,-3.70
2019-02-07T03:29:13.380Z,-3.60
2019-02-07T03:31:58.587Z,-3.40
2019-02-07T03:34:29.078Z,-3.60
2019-02-07T03:37:05.903Z,-3.50
2019-02-07T03:39:45.517Z,-3.10
2019-02-07T03:42:15.773Z,-3.20
2019-02-07T03:44:54.703Z,-3.40
2019-02-07T03:47:33.879Z,-3.60
2019-02-07T03:50:13.540Z,-3.50
2019-02-07T03:52:52.508Z,-3.30
2019-02-07T03:55:39.181Z,-3.30
2019-02-07T03:58:19.273Z,-3.40
2019-02-07T04:00:52.585Z,-3.60
2019-02-07T04:03:39.217Z,-3.50
2019-02-07T04:06:12.747Z,-3.20
2019-02-07T04:08:48.913Z,-3.30
2019-02-07T04:11:35.093Z,-3.50
2019-02-07T04:14:06.024Z,-3.60
2019-02-07T04:16:36.646Z,-3.70
2019-02-07T04:19:09.605Z,-3.60
2019-02-07T04:21:43.243Z,-3.70
2019-02-07T04:24:13.650Z,-3.80
2019-02-07T04:26:44.054Z,-3.70
2019-02-07T04:29:14.211Z,-3.60
2019-02-07T04:31:47.700Z,-3.50
2019-02-07T04:34:31.095Z,-3.70
2019-02-07T04:37:04.502Z,-3.70
2019-02-07T04:39:40.604Z,-3.90
2019-02-07T04:42:19.944Z,-3.90
2019-02-07T04:44:50.111Z,-4.00
2019-02-07T04:47:36.751Z,-3.80
2019-02-07T04:50:15.994Z,-3.70
2019-02-07T04:52:54.955Z,-3.60
2019-02-07T04:55:25.544Z,-3.50
2019-02-07T04:57:58.180Z,-3.70
2019-02-07T05:00:30.944Z,-3.80
2019-02-07T05:03:17.576Z,-3.70
2019-02-07T05:05:56.663Z,-3.70
2019-02-07T05:08:42.937Z,-3.70
2019-02-07T05:11:28.372Z,-3.70
2019-02-07T05:14:04.482Z,-3.80
2019-02-07T05:16:51.314Z,-3.70
2019-02-07T05:19:33.752Z,-3.70
2019-02-07T05:22:10.165Z,-3.70
2019-02-07T05:24:46.393Z,-3.70
2019-02-07T05:27:19.438Z,-3.50
2019-02-07T05:29:58.436Z,-3.60
2019-02-07T05:32:31.416Z,-3.70
2019-02-07T05:35:07.375Z,-3.80
2019-02-07T05:37:43.492Z,-3.90
2019-02-07T05:40:30.407Z,-3.90
2019-02-07T05:43:00.593Z,-3.90
2019-02-07T05:45:34.764Z,-4.00
2019-02-07T05:48:23.764Z,-4.00
2019-02-07T05:51:12.067Z,-3.80
2019-02-07T05:53:54.366Z,-3.90
2019-02-07T05:56:30.793Z,-4.00
2019-02-07T05:59:13.063Z,-4.10
2019-02-07T06:02:01.619Z,-4.10
2019-02-07T06:04:48.497Z,-4.10
2019-02-07T06:07:21.265Z,-4.10
2019-02-07T06:09:51.407Z,-4.10
2019-02-07T06:12:40.362Z,-4.10
2019-02-07T06:15:20.816Z,-4.00
2019-02-07T06:17:53.726Z,-4.00
2019-02-07T06:20:27.200Z,-4.00
2019-02-07T06:23:14.581Z,-3.90
2019-02-07T06:25:44.755Z,-4.20
2019-02-07T06:28:17.897Z,-4.30
2019-02-07T06:30:48.391Z,-4.20
2019-02-07T06:33:33.667Z,-4.30
2019-02-07T06:36:12.579Z,-4.40
2019-02-07T06:38:45.570Z,-4.40
2019-02-07T06:41:31.131Z,-4.00
2019-02-07T06:44:10.517Z,-4.00
2019-02-07T06:46:56.184Z,-4.00
2019-02-07T06:49:32.247Z,-4.00
2019-02-07T06:52:04.940Z,-4.10
2019-02-07T06:54:38.543Z,-4.00
2019-02-07T06:57:16.971Z,-4.00
2019-02-07T06:59:52.516Z,-4.10
2019-02-07T07:02:37.443Z,-4.00
2019-02-07T07:05:10.066Z,-3.70
2019-02-07T07:07:53.149Z,-3.70
2019-02-07T07:10:26.185Z,-3.70
2019-02-07T07:13:02.796Z,-3.80
2019-02-07T07:15:49.641Z,-3.90
2019-02-07T07:18:22.678Z,-4.00
2019-02-07T07:21:01.959Z,-3.80
2019-02-07T07:23:41.014Z,-3.70
2019-02-07T07:26:27.532Z,-3.50
2019-02-07T07:29:12.731Z,-3.50
2019-02-07T07:31:51.675Z,-3.40
2019-02-07T07:34:38.196Z,-3.50
2019-02-07T07:37:11.458Z,-3.60
2019-02-07T07:40:00.019Z,-3.50
2019-02-07T07:42:42.653Z,-3.40
2019-02-07T07:45:16.351Z,-3.30
2019-02-07T07:47:52.003Z,-3.10
2019-02-07T07:50:39.915Z,-2.90
2019-02-07T07:53:22.128Z,-2.90
2019-02-07T07:56:00.955Z,-2.80
2019-02-07T07:58:47.193Z,-2.80
2019-02-07T08:01:35.832Z,-2.80
2019-02-07T08:04:06.322Z,-2.80
2019-02-07T08:06:36.424Z,-2.80
2019-02-07T08:09:09.664Z,-2.80
2019-02-07T08:11:49.004Z,-2.70
2019-02-07T08:14:34.978Z,-2.80
2019-02-07T08:17:10.911Z,-2.70
2019-02-07T08:19:47.087Z,-2.60
2019-02-07T08:22:33.696Z,-2.60
2019-02-07T08:25:07.012Z,-2.60
2019-02-07T08:27:40.148Z,-2.50
2019-02-07T08:30:18.323Z,-2.50
2019-02-07T08:32:54.382Z,-2.40
2019-02-07T08:35:24.486Z,-2.30
2019-02-07T08:37:58.090Z,-2.20
2019-02-07T08:40:34.161Z,-2.10
2019-02-07T08:43:04.942Z,-2.10
2019-02-07T08:45:48.900Z,-2.00
2019-02-07T08:48:25.167Z,-1.90
2019-02-07T08:50:58.568Z,-1.80
2019-02-07T08:53:28.952Z,-1.70
2019-02-07T08:56:15.550Z,-1.70
2019-02-07T08:58:54.709Z,-1.70
2019-02-07T09:01:33.911Z,-1.60
2019-02-07T09:04:06.835Z,-1.60
2019-02-07T09:06:54.661Z,-1.40
2019-02-07T09:09:24.932Z,-1.30
2019-02-07T09:11:57.624Z,-1.40
2019-02-07T09:14:27.776Z,-1.40
2019-02-07T09:17:03.878Z,-1.40
2019-02-07T09:19:40.223Z,-1.30
2019-02-07T09:22:23.944Z,-1.20
2019-02-07T09:25:00.313Z,-1.10
2019-02-07T09:27:42.581Z,-0.90
2019-02-07T09:30:19.508Z,-0.90
2019-02-07T09:32:52.696Z,0.70
2019-02-07T09:35:41.715Z,-0.70
2019-02-07T09:38:17.388Z,-0.70
2019-02-07T09:41:03.267Z,-0.60
2019-02-07T09:43:48.473Z,-0.60
2019-02-07T09:46:24.466Z,-0.50
2019-02-07T09:48:58.706Z,-0.50
2019-02-07T09:51:29.189Z,-0.60
2019-02-07T09:54:11.108Z,-0.70
2019-02-07T09:56:46.909Z,-0.70
2019-02-07T09:59:33.132Z,-0.80
2019-02-07T10:02:12.327Z,-0.90
2019-02-07T10:04:42.501Z,-0.70
2019-02-07T10:07:12.631Z,-0.50
2019-02-07T10:09:42.846Z,-0.60
2019-02-07T10:12:21.094Z,-0.50
2019-02-07T10:15:03.872Z,-0.30
2019-02-07T10:17:33.975Z,-0.10
2019-02-07T10:20:16.216Z,0.00
2019-02-07T10:22:51.923Z,-0.20
2019-02-07T10:25:24.846Z,-0.10
2019-02-07T10:28:13.623Z,0.00
2019-02-07T10:30:44.074Z,0.00
2019-02-07T10:33:17.104Z,0.00
2019-02-07T10:35:49.745Z,-0.10
2019-02-07T10:38:28.718Z,0.00
2019-02-07T10:41:05.776Z,0.10
2019-02-07T10:43:48.117Z,0.20
2019-02-07T10:46:36.244Z,0.20
2019-02-07T10:49:18.561Z,0.20
2019-02-07T10:51:48.769Z,0.20
2019-02-07T10:54:30.798Z,0.40
2019-02-07T10:57:16.955Z,0.40
2019-02-07T10:59:47.214Z,0.40
2019-02-07T11:02:33.710Z,0.20
2019-02-07T11:05:12.886Z,0.30
2019-02-07T11:07:52.158Z,0.20
2019-02-07T11:10:38.836Z,0.30
2019-02-07T11:13:11.485Z,0.30
2019-02-07T11:15:57.700Z,0.30
2019-02-07T11:18:36.591Z,0.40
2019-02-07T11:21:25.103Z,0.50
2019-02-07T11:24:11.932Z,0.50
2019-02-07T11:26:45.238Z,0.60
2019-02-07T11:29:30.156Z,0.40
2019-02-07T11:32:00.291Z,0.50
2019-02-07T11:34:30.511Z,0.50
2019-02-07T11:37:17.422Z,0.50
2019-02-07T11:39:47.635Z,0.30
2019-02-07T11:42:20.828Z,0.30
2019-02-07T11:44:51.026Z,0.40
2019-02-07T11:47:21.624Z,0.40
2019-02-07T11:49:51.808Z,0.50
2019-02-07T11:52:40.337Z,0.60
2019-02-07T11:55:18.347Z,0.60
2019-02-07T11:57:57.487Z,0.80
2019-02-07T12:00:27.580Z,0.80
2019-02-07T12:03:12.597Z,0.70
2019-02-07T12:05:42.983Z,0.80
2019-02-07T12:08:14.737Z,0.70
2019-02-07T12:10:47.547Z,0.80
2019-02-07T12:13:32.063Z,0.70
2019-02-07T12:16:04.916Z,0.80
2019-02-07T12:18:35.114Z,0.80
2019-02-07T12:21:06.795Z,0.80
2019-02-07T12:23:45.821Z,0.90
2019-02-07T12:26:25.411Z,0.90
2019-02-07T12:29:10.570Z,0.90
2019-02-07T12:31:40.808Z,0.80
2019-02-07T12:34:12.840Z,0.70
2019-02-07T12:36:49.024Z,1.00
2019-02-07T12:39:37.012Z,1.00
2019-02-07T12:42:22.711Z,0.90
2019-02-07T12:45:09.104Z,0.80
2019-02-07T12:47:39.270Z,1.00
2019-02-07T12:50:29.755Z,1.00
2019-02-07T12:52:59.861Z,1.10
2019-02-07T12:55:37.608Z,1.10
2019-02-07T12:58:12.407Z,1.00
2019-02-07T13:01:00.913Z,1.00
2019-02-07T13:03:36.889Z,1.10
2019-02-07T13:06:23.683Z,1.10
2019-02-07T13:09:10.279Z,1.10
2019-02-07T13:11:49.193Z,1.00
2019-02-07T13:14:31.300Z,1.10
2019-02-07T13:17:07.294Z,1.10
2019-02-07T13:19:40.615Z,1.20
2019-02-07T13:22:16.307Z,1.20
2019-02-07T13:25:04.745Z,1.20
2019-02-07T13:27:50.829Z,1.30
2019-02-07T13:30:36.402Z,1.30
2019-02-07T13:33:09.771Z,1.40
2019-02-07T13:35:39.953Z,1.40
2019-02-07T13:38:28.302Z,1.30
2019-02-07T13:40:58.433Z,1.30
2019-02-07T13:43:28.600Z,1.40
2019-02-07T13:46:01.991Z,1.30
2019-02-07T13:48:36.214Z,1.40
2019-02-07T13:51:09.421Z,1.50
2019-02-07T13:53:51.709Z,1.50
2019-02-07T13:56:21.959Z,1.50
2019-02-07T13:59:10.418Z,1.60
2019-02-07T14:01:46.345Z,1.60
2019-02-07T14:04:33.132Z,1.60
2019-02-07T14:07:03.258Z,1.60
2019-02-07T14:09:49.880Z,1.50
2019-02-07T14:12:35.456Z,1.40
2019-02-07T14:15:14.664Z,1.50
2019-02-07T14:18:00.765Z,1.30
2019-02-07T14:20:48.745Z,1.50
2019-02-07T14:23:21.970Z,1.40
2019-02-07T14:25:52.104Z,1.40
2019-02-07T14:28:34.682Z,1.50
2019-02-07T14:31:07.555Z,1.60
2019-02-07T14:33:46.889Z,1.50
2019-02-07T14:36:22.956Z,1.50
2019-02-07T14:38:53.232Z,1.50
2019-02-07T14:41:26.212Z,1.60
2019-02-07T14:43:59.630Z,1.60
2019-02-07T14:46:29.743Z,1.50
2019-02-07T14:48:58.294Z,1.60
2019-02-07T14:51:26.762Z,1.60
2019-02-07T14:53:55.317Z,1.60
2019-02-07T14:56:23.771Z,1.60
2019-02-07T14:58:52.426Z,1.60
2019-02-07T15:01:21.054Z,1.60
2019-02-07T15:03:49.714Z,1.60
2019-02-07T15:06:18.198Z,1.80
2019-02-07T15:08:46.737Z,1.60
2019-02-07T15:11:15.376Z,1.60
2019-02-07T15:13:44.225Z,1.60
2019-02-07T15:16:12.944Z,1.60
2019-02-07T15:18:41.563Z,1.80
2019-02-07T15:21:10.325Z,1.90
2019-02-07T15:23:39.070Z,1.80
2019-02-07T15:26:08.073Z,1.90
2019-02-07T15:28:36.608Z,1.80
2019-02-07T15:31:05.534Z,1.70
2019-02-07T15:33:34.110Z,1.70
2019-02-07T15:36:02.632Z,1.70
2019-02-07T15:38:31.188Z,1.80
2019-02-07T15:40:59.836Z,1.70
2019-02-07T15:43:29.771Z,1.70
2019-02-07T15:45:59.211Z,1.90
2019-02-07T15:48:27.719Z,1.90
2019-02-07T15:50:56.325Z,1.90
2019-02-07T15:53:25.381Z,1.90
2019-02-07T15:55:53.952Z,1.90
2019-02-07T15:58:24.077Z,1.90
2019-02-07T16:01:02.758Z,1.90
2019-02-07T16:03:32.877Z,1.90
2019-02-07T16:06:01.411Z,1.80
2019-02-07T16:08:29.912Z,1.90
2019-02-07T16:10:58.408Z,1.80
2019-02-07T16:13:28.429Z,1.80
2019-02-07T16:15:57.106Z,1.60
2019-02-07T16:18:25.858Z,1.70
2019-02-07T16:20:54.518Z,1.60
2019-02-07T16:23:23.880Z,1.50
2019-02-07T16:25:52.587Z,1.70
2019-02-07T16:28:21.128Z,1.60
2019-02-07T16:30:49.908Z,1.70
2019-02-07T16:33:18.396Z,1.60
2019-02-07T16:35:47.034Z,1.50
2019-02-07T16:38:15.503Z,1.50
2019-02-07T16:40:44.126Z,1.50
2019-02-07T16:43:12.735Z,1.50
2019-02-07T16:45:42.055Z,1.50
2019-02-07T16:48:10.637Z,1.40
2019-02-07T16:50:39.233Z,1.40
2019-02-07T16:53:07.789Z,1.40
2019-02-07T16:55:36.371Z,1.40
2019-02-07T16:58:05.153Z,1.40
2019-02-07T17:00:35.652Z,1.50
2019-02-07T17:03:05.266Z,1.50
2019-02-07T17:05:33.807Z,1.50
2019-02-07T17:08:02.664Z,1.40
2019-02-07T17:10:41.077Z,1.40
2019-02-07T17:13:11.477Z,1.40
2019-02-07T17:15:40.289Z,1.40
2019-02-07T17:18:10.649Z,1.50
2019-02-07T17:20:41.211Z,1.50
2019-02-07T17:23:10.517Z,1.60
2019-02-07T17:25:39.055Z,1.60
2019-02-07T17:28:07.717Z,1.80
2019-02-07T17:30:36.819Z,1.70
2019-02-07T17:33:05.622Z,1.70
2019-02-07T17:35:34.265Z,1.80
2019-02-07T17:38:02.739Z,1.70
2019-02-07T17:40:31.371Z,1.70
2019-02-07T17:43:00.784Z,1.60
2019-02-07T17:45:31.203Z,1.60
2019-02-07T17:47:59.849Z,1.70
2019-02-07T17:50:33.569Z,1.80
2019-02-07T17:53:07.826Z,1.90
2019-02-07T17:55:36.371Z,1.80
2019-02-07T17:58:06.083Z,1.70
2019-02-07T18:00:55.312Z,1.70
2019-02-07T18:03:23.937Z,1.70
2019-02-07T18:05:52.576Z,1.60
2019-02-07T18:08:21.305Z,1.50
2019-02-07T18:10:50.665Z,1.60
2019-02-07T18:13:19.235Z,1.60
2019-02-07T18:15:47.789Z,1.60
2019-02-07T18:18:16.417Z,1.60
2019-02-07T18:20:45.319Z,1.60
2019-02-07T18:23:14.112Z,1.60
2019-02-07T18:25:42.685Z,1.60
2019-02-07T18:28:12.089Z,1.50
2019-02-07T18:30:40.642Z,1.50
2019-02-07T18:33:09.247Z,1.40
2019-02-07T18:35:37.852Z,1.50
2019-02-07T18:38:06.651Z,1.60
2019-02-07T18:40:35.193Z,1.70
2019-02-07T18:43:04.334Z,1.70
2019-02-07T18:45:32.944Z,1.80
2019-02-07T18:48:02.434Z,1.80
2019-02-07T18:50:36.189Z,1.70
2019-02-07T18:53:05.350Z,1.80
2019-02-07T18:55:34.005Z,1.80
2019-02-07T18:58:03.193Z,1.80
2019-02-07T19:00:33.927Z,1.80
2019-02-07T19:03:02.557Z,1.70
2019-02-07T19:05:31.282Z,1.70
2019-02-07T19:07:59.834Z,1.70
2019-02-07T19:10:31.222Z,1.80
2019-02-07T19:13:01.589Z,1.80
2019-02-07T19:15:35.654Z,1.80
2019-02-07T19:18:04.961Z,1.90
2019-02-07T19:20:34.645Z,1.80
2019-02-07T19:23:04.301Z,1.80
2019-02-07T19:25:32.835Z,1.90
2019-02-07T19:28:01.576Z,1.90
2019-02-07T19:30:32.902Z,1.80
2019-02-07T19:33:01.546Z,1.90
2019-02-07T19:35:30.365Z,1.90
2019-02-07T19:37:59.064Z,1.90
2019-02-07T19:40:28.052Z,1.90
2019-02-07T19:42:57.023Z,2.00
2019-02-07T19:45:26.974Z,1.80
2019-02-07T19:47:55.608Z,1.90
2019-02-07T19:50:28.280Z,1.90
2019-02-07T19:52:57.087Z,1.90
2019-02-07T19:55:31.290Z,2.00
2019-02-07T19:57:59.823Z,2.00
2019-02-07T20:00:33.376Z,1.90
2019-02-07T20:03:02.261Z,1.90
2019-02-07T20:05:30.879Z,1.90
2019-02-07T20:08:00.865Z,2.00
2019-02-07T20:10:29.994Z,2.00
2019-02-07T20:12:59.252Z,1.90
2019-02-07T20:15:30.688Z,1.90
2019-02-07T20:18:00.088Z,1.90
2019-02-07T20:20:31.415Z,1.90
2019-02-07T20:23:00.456Z,1.90
2019-02-07T20:25:30.862Z,1.90
2019-02-07T20:28:00.097Z,1.90
2019-02-07T20:30:37.486Z,1.90
2019-02-07T20:33:06.877Z,2.00
2019-02-07T20:35:35.790Z,1.90
2019-02-07T20:38:05.758Z,2.00
2019-02-07T20:40:34.435Z,2.00
2019-02-07T20:43:03.471Z,1.90
2019-02-07T20:45:32.080Z,1.90
2019-02-07T20:48:00.682Z,1.90
2019-02-07T20:50:29.719Z,1.90
2019-02-07T20:52:58.431Z,1.90
2019-02-07T20:55:27.314Z,1.80
2019-02-07T20:57:56.711Z,1.80
2019-02-07T21:00:30.350Z,1.90
2019-02-07T21:02:58.997Z,1.90
2019-02-07T21:05:29.171Z,1.80
2019-02-07T21:07:57.888Z,1.80
2019-02-07T21:10:35.294Z,1.80
2019-02-07T21:13:05.177Z,1.80
2019-02-07T21:15:33.792Z,1.70
2019-02-07T21:18:02.462Z,1.80
2019-02-07T21:20:32.105Z,1.80
2019-02-07T21:23:01.511Z,1.80
2019-02-07T21:25:33.123Z,1.80
2019-02-07T21:28:01.826Z,1.80
2019-02-07T21:30:32.136Z,1.80
2019-02-07T21:33:00.697Z,1.80
2019-02-07T21:35:29.973Z,1.80
2019-02-07T21:37:58.602Z,1.70
2019-02-07T21:40:30.986Z,1.80
2019-02-07T21:43:00.707Z,1.70
2019-02-07T21:45:30.009Z,1.60
2019-02-07T21:47:59.903Z,1.70
2019-02-07T21:50:32.550Z,1.70
2019-02-07T21:53:01.422Z,1.70
2019-02-07T21:55:35.011Z,1.60
2019-02-07T21:58:04.318Z,1.60
2019-02-07T22:00:38.390Z,1.70
2019-02-07T22:03:08.651Z,1.60
2019-02-07T22:05:37.183Z,1.60
2019-02-07T22:08:07.085Z,1.60
2019-02-07T22:10:36.114Z,1.60
2019-02-07T22:13:05.325Z,1.60
2019-02-07T22:15:33.886Z,1.50
2019-02-07T22:18:02.381Z,1.60
2019-02-07T22:20:31.203Z,1.60
2019-02-07T22:23:00.031Z,1.50
2019-02-07T22:25:28.641Z,1.50
2019-02-07T22:27:57.350Z,1.40
2019-02-07T22:30:34.374Z,1.50
2019-02-07T22:33:02.915Z,1.40
2019-02-07T22:35:31.748Z,1.40
2019-02-07T22:38:01.058Z,1.50
2019-02-07T22:40:30.097Z,1.40
2019-02-07T22:43:00.518Z,1.50
2019-02-07T22:45:29.405Z,1.40
2019-02-07T22:47:57.871Z,1.40
2019-02-07T22:50:28.192Z,1.40
2019-02-07T22:52:57.346Z,1.40
2019-02-07T22:55:26.701Z,1.30
2019-02-07T22:57:55.809Z,1.30
2019-02-07T23:00:38.311Z,1.30
2019-02-07T23:03:14.824Z,1.30
2019-02-07T23:05:43.666Z,1.40
2019-02-07T23:08:12.594Z,1.50
2019-02-07T23:10:41.487Z,1.30
2019-02-07T23:13:11.819Z,1.40
2019-02-07T23:15:40.756Z,1.40
2019-02-07T23:18:09.477Z,1.40
2019-02-07T23:20:38.540Z,1.30
2019-02-07T23:23:09.331Z,1.30
2019-02-07T23:25:38.166Z,1.30
2019-02-07T23:28:07.374Z,1.40
2019-02-07T23:30:35.921Z,1.40
2019-02-07T23:33:05.926Z,1.50
2019-02-07T23:35:34.604Z,1.50
2019-02-07T23:38:03.207Z,1.40
2019-02-07T23:40:31.787Z,1.40
2019-02-07T23:43:00.612Z,1.40
2019-02-07T23:45:29.213Z,1.30
2019-02-07T23:47:57.770Z,1.40
2019-02-07T23:50:26.316Z,1.20
2019-02-07T23:52:54.766Z,1.30
2019-02-07T23:55:23.331Z,1.30
2019-02-07T23:57:52.101Z,1.30
